sensor_id;sensor_type;location;lat;lon;timestamp;P1;durP1;ratioP1;P2;durP2;ratioP2
20653;SDS011;21083;50.898;4.902;2024-03-06T00:01:33;11.63;;;5.15;;
20653;SDS011;21083;50.898;4.902;2024-03-06T00:04:01;12.18;;;4.95;;
20653;SDS011;21083;50.898;4.902;2024-03-06T00:06:30;14.55;;;5.40;;
20653;SDS011;21083;50.898;4.902;2024-03-06T00:08:58;12.07;;;5.43;;
20653;SDS011;21083;50.898;4.902;2024-03-06T00:11:27;11.80;;;4.70;;
20653;SDS011;21083;50.898;4.902;2024-03-06T00:13:55;13.27;;;5.25;;
20653;SDS011;21083;50.898;4.902;2024-03-06T00:16:22;12.32;;;5.10;;
20653;SDS011;21083;50.898;4.902;2024-03-06T00:18:49;11.35;;;5.15;;
20653;SDS011;21083;50.898;4.902;2024-03-06T00:21:16;13.95;;;5.43;;
20653;SDS011;21083;50.898;4.902;2024-03-06T00:23:44;11.45;;;5.22;;
20653;SDS011;21083;50.898;4.902;2024-03-06T00:26:13;14.52;;;5.75;;
20653;SDS011;21083;50.898;4.902;2024-03-06T00:28:40;12.50;;;5.40;;
20653;SDS011;21083;50.898;4.902;2024-03-06T00:31:07;13.05;;;5.75;;
20653;SDS011;21083;50.898;4.902;2024-03-06T00:33:34;13.43;;;5.90;;
20653;SDS011;21083;50.898;4.902;2024-03-06T00:36:02;12.45;;;5.65;;
20653;SDS011;21083;50.898;4.902;2024-03-06T00:38:29;14.45;;;5.80;;
20653;SDS011;21083;50.898;4.902;2024-03-06T00:40:57;11.48;;;5.97;;
20653;SDS011;21083;50.898;4.902;2024-03-06T00:43:25;14.55;;;5.63;;
20653;SDS011;21083;50.898;4.902;2024-03-06T00:45:53;11.25;;;4.97;;
20653;SDS011;21083;50.898;4.902;2024-03-06T00:48:21;10.60;;;5.32;;
20653;SDS011;21083;50.898;4.902;2024-03-06T00:50:48;12.40;;;5.57;;
20653;SDS011;21083;50.898;4.902;2024-03-06T00:53:15;14.35;;;5.80;;
20653;SDS011;21083;50.898;4.902;2024-03-06T00:55:43;11.57;;;5.63;;
20653;SDS011;21083;50.898;4.902;2024-03-06T00:58:10;12.23;;;5.30;;
20653;SDS011;21083;50.898;4.902;2024-03-06T01:00:39;11.88;;;5.50;;
20653;SDS011;21083;50.898;4.902;2024-03-06T01:03:06;11.80;;;6.22;;
20653;SDS011;21083;50.898;4.902;2024-03-06T01:05:33;13.88;;;5.85;;
20653;SDS011;21083;50.898;4.902;2024-03-06T01:08:01;12.18;;;5.45;;
20653;SDS011;21083;50.898;4.902;2024-03-06T01:10:28;12.25;;;5.32;;
20653;SDS011;21083;50.898;4.902;2024-03-06T01:12:56;11.38;;;5.60;;
20653;SDS011;21083;50.898;4.902;2024-03-06T01:15:23;13.75;;;5.32;;
20653;SDS011;21083;50.898;4.902;2024-03-06T01:17:52;13.88;;;6.10;;
20653;SDS011;21083;50.898;4.902;2024-03-06T01:20:19;13.80;;;5.63;;
20653;SDS011;21083;50.898;4.902;2024-03-06T01:22:46;14.63;;;5.82;;
20653;SDS011;21083;50.898;4.902;2024-03-06T01:25:13;14.07;;;6.20;;
20653;SDS011;21083;50.898;4.902;2024-03-06T01:27:41;15.70;;;6.32;;
20653;SDS011;21083;50.898;4.902;2024-03-06T01:30:09;12.20;;;5.80;;
20653;SDS011;21083;50.898;4.902;2024-03-06T01:32:36;14.13;;;6.00;;
20653;SDS011;21083;50.898;4.902;2024-03-06T01:35:06;11.40;;;5.68;;
20653;SDS011;21083;50.898;4.902;2024-03-06T01:37:33;15.13;;;5.80;;
20653;SDS011;21083;50.898;4.902;2024-03-06T01:40:01;14.43;;;6.93;;
20653;SDS011;21083;50.898;4.902;2024-03-06T01:42:29;13.73;;;6.18;;
20653;SDS011;21083;50.898;4.902;2024-03-06T01:44:56;13.50;;;5.78;;
20653;SDS011;21083;50.898;4.902;2024-03-06T01:47:24;12.38;;;5.63;;
20653;SDS011;21083;50.898;4.902;2024-03-06T01:49:51;12.55;;;5.80;;
20653;SDS011;21083;50.898;4.902;2024-03-06T01:52:20;14.00;;;5.72;;
20653;SDS011;21083;50.898;4.902;2024-03-06T01:54:48;16.33;;;6.10;;
20653;SDS011;21083;50.898;4.902;2024-03-06T01:57:17;14.52;;;6.03;;
20653;SDS011;21083;50.898;4.902;2024-03-06T01:59:45;15.25;;;6.10;;
20653;SDS011;21083;50.898;4.902;2024-03-06T02:02:13;17.45;;;7.40;;
20653;SDS011;21083;50.898;4.902;2024-03-06T02:04:42;13.95;;;6.32;;
20653;SDS011;21083;50.898;4.902;2024-03-06T02:07:10;11.80;;;5.72;;
20653;SDS011;21083;50.898;4.902;2024-03-06T02:09:39;12.95;;;5.93;;
20653;SDS011;21083;50.898;4.902;2024-03-06T02:12:06;14.52;;;6.65;;
20653;SDS011;21083;50.898;4.902;2024-03-06T02:14:34;12.20;;;6.43;;
20653;SDS011;21083;50.898;4.902;2024-03-06T02:17:02;12.35;;;5.85;;
20653;SDS011;21083;50.898;4.902;2024-03-06T02:19:38;12.35;;;6.40;;
20653;SDS011;21083;50.898;4.902;2024-03-06T02:22:08;12.50;;;6.20;;
20653;SDS011;21083;50.898;4.902;2024-03-06T02:24:36;13.05;;;6.32;;
20653;SDS011;21083;50.898;4.902;2024-03-06T02:27:04;11.95;;;5.97;;
20653;SDS011;21083;50.898;4.902;2024-03-06T02:29:31;12.75;;;6.40;;
20653;SDS011;21083;50.898;4.902;2024-03-06T02:31:59;12.80;;;6.13;;
20653;SDS011;21083;50.898;4.902;2024-03-06T02:34:27;13.20;;;5.93;;
20653;SDS011;21083;50.898;4.902;2024-03-06T02:36:55;14.02;;;5.90;;
20653;SDS011;21083;50.898;4.902;2024-03-06T02:39:24;12.77;;;6.13;;
20653;SDS011;21083;50.898;4.902;2024-03-06T02:41:51;12.35;;;6.03;;
20653;SDS011;21083;50.898;4.902;2024-03-06T02:44:18;13.50;;;6.45;;
20653;SDS011;21083;50.898;4.902;2024-03-06T02:46:46;14.30;;;6.50;;
20653;SDS011;21083;50.898;4.902;2024-03-06T02:49:15;14.65;;;6.47;;
20653;SDS011;21083;50.898;4.902;2024-03-06T02:51:42;14.55;;;6.18;;
20653;SDS011;21083;50.898;4.902;2024-03-06T02:54:09;15.13;;;6.47;;
20653;SDS011;21083;50.898;4.902;2024-03-06T02:56:38;14.35;;;6.53;;
20653;SDS011;21083;50.898;4.902;2024-03-06T02:59:05;11.57;;;6.10;;
20653;SDS011;21083;50.898;4.902;2024-03-06T03:01:34;15.48;;;5.93;;
20653;SDS011;21083;50.898;4.902;2024-03-06T03:04:01;12.20;;;5.82;;
20653;SDS011;21083;50.898;4.902;2024-03-06T03:06:28;18.15;;;6.32;;
20653;SDS011;21083;50.898;4.902;2024-03-06T03:08:56;14.90;;;6.03;;
20653;SDS011;21083;50.898;4.902;2024-03-06T03:11:23;11.95;;;5.78;;
20653;SDS011;21083;50.898;4.902;2024-03-06T03:13:51;13.88;;;5.93;;
20653;SDS011;21083;50.898;4.902;2024-03-06T03:16:19;13.05;;;6.25;;
20653;SDS011;21083;50.898;4.902;2024-03-06T03:18:47;15.65;;;6.50;;
20653;SDS011;21083;50.898;4.902;2024-03-06T03:21:14;14.35;;;6.45;;
20653;SDS011;21083;50.898;4.902;2024-03-06T03:23:41;13.82;;;5.90;;
20653;SDS011;21083;50.898;4.902;2024-03-06T03:26:09;12.80;;;6.25;;
20653;SDS011;21083;50.898;4.902;2024-03-06T03:28:37;14.68;;;6.28;;
20653;SDS011;21083;50.898;4.902;2024-03-06T03:31:07;16.40;;;5.97;;
20653;SDS011;21083;50.898;4.902;2024-03-06T03:33:35;12.80;;;6.57;;
20653;SDS011;21083;50.898;4.902;2024-03-06T03:36:05;13.52;;;6.22;;
20653;SDS011;21083;50.898;4.902;2024-03-06T03:38:34;11.35;;;6.15;;
20653;SDS011;21083;50.898;4.902;2024-03-06T03:41:06;13.45;;;6.35;;
20653;SDS011;21083;50.898;4.902;2024-03-06T03:43:34;12.07;;;5.40;;
20653;SDS011;21083;50.898;4.902;2024-03-06T03:46:01;14.18;;;5.90;;
20653;SDS011;21083;50.898;4.902;2024-03-06T03:48:30;12.23;;;6.13;;
20653;SDS011;21083;50.898;4.902;2024-03-06T03:51:01;14.27;;;6.30;;
20653;SDS011;21083;50.898;4.902;2024-03-06T03:53:29;12.55;;;6.07;;
20653;SDS011;21083;50.898;4.902;2024-03-06T03:55:56;11.73;;;5.43;;
20653;SDS011;21083;50.898;4.902;2024-03-06T03:58:24;14.07;;;5.65;;
20653;SDS011;21083;50.898;4.902;2024-03-06T04:00:51;11.95;;;5.28;;
20653;SDS011;21083;50.898;4.902;2024-03-06T04:03:20;12.95;;;5.53;;
20653;SDS011;21083;50.898;4.902;2024-03-06T04:05:49;13.00;;;5.75;;
20653;SDS011;21083;50.898;4.902;2024-03-06T04:08:16;13.82;;;6.10;;
20653;SDS011;21083;50.898;4.902;2024-03-06T04:10:43;19.45;;;6.57;;
20653;SDS011;21083;50.898;4.902;2024-03-06T04:13:11;15.63;;;6.22;;
20653;SDS011;21083;50.898;4.902;2024-03-06T04:15:38;13.48;;;6.40;;
20653;SDS011;21083;50.898;4.902;2024-03-06T04:18:06;15.80;;;6.63;;
20653;SDS011;21083;50.898;4.902;2024-03-06T04:20:33;13.23;;;6.65;;
20653;SDS011;21083;50.898;4.902;2024-03-06T04:23:02;14.23;;;6.47;;
20653;SDS011;21083;50.898;4.902;2024-03-06T04:25:29;14.32;;;6.50;;
20653;SDS011;21083;50.898;4.902;2024-03-06T04:27:56;14.10;;;6.10;;
20653;SDS011;21083;50.898;4.902;2024-03-06T04:30:24;13.63;;;6.13;;
20653;SDS011;21083;50.898;4.902;2024-03-06T04:32:51;15.48;;;6.20;;
20653;SDS011;21083;50.898;4.902;2024-03-06T04:35:18;14.88;;;5.90;;
20653;SDS011;21083;50.898;4.902;2024-03-06T04:37:46;11.63;;;5.97;;
20653;SDS011;21083;50.898;4.902;2024-03-06T04:40:14;14.75;;;6.07;;
20653;SDS011;21083;50.898;4.902;2024-03-06T04:42:45;17.98;;;6.55;;
20653;SDS011;21083;50.898;4.902;2024-03-06T04:45:14;15.43;;;6.53;;
20653;SDS011;21083;50.898;4.902;2024-03-06T04:47:42;15.13;;;6.47;;
20653;SDS011;21083;50.898;4.902;2024-03-06T04:50:10;12.48;;;5.97;;
20653;SDS011;21083;50.898;4.902;2024-03-06T04:52:39;14.05;;;6.30;;
20653;SDS011;21083;50.898;4.902;2024-03-06T04:55:07;14.38;;;6.57;;
20653;SDS011;21083;50.898;4.902;2024-03-06T04:57:36;13.75;;;5.95;;
20653;SDS011;21083;50.898;4.902;2024-03-06T05:00:06;13.13;;;5.55;;
20653;SDS011;21083;50.898;4.902;2024-03-06T05:02:34;13.70;;;6.07;;
20653;SDS011;21083;50.898;4.902;2024-03-06T05:05:02;12.23;;;5.18;;
20653;SDS011;21083;50.898;4.902;2024-03-06T05:07:30;12.50;;;5.95;;
20653;SDS011;21083;50.898;4.902;2024-03-06T05:09:58;13.82;;;6.20;;
20653;SDS011;21083;50.898;4.902;2024-03-06T05:12:26;15.90;;;6.18;;
20653;SDS011;21083;50.898;4.902;2024-03-06T05:14:55;15.30;;;5.90;;
20653;SDS011;21083;50.898;4.902;2024-03-06T05:17:22;14.10;;;6.18;;
20653;SDS011;21083;50.898;4.902;2024-03-06T05:19:50;14.52;;;5.45;;
20653;SDS011;21083;50.898;4.902;2024-03-06T05:22:17;13.15;;;6.05;;
20653;SDS011;21083;50.898;4.902;2024-03-06T05:24:45;13.38;;;5.40;;
20653;SDS011;21083;50.898;4.902;2024-03-06T05:27:12;10.65;;;4.70;;
20653;SDS011;21083;50.898;4.902;2024-03-06T05:29:42;11.18;;;5.20;;
20653;SDS011;21083;50.898;4.902;2024-03-06T05:32:11;11.68;;;5.68;;
20653;SDS011;21083;50.898;4.902;2024-03-06T05:34:38;20.45;;;6.60;;
20653;SDS011;21083;50.898;4.902;2024-03-06T05:37:06;13.63;;;5.65;;
20653;SDS011;21083;50.898;4.902;2024-03-06T05:39:33;13.10;;;6.00;;
20653;SDS011;21083;50.898;4.902;2024-03-06T05:42:00;12.45;;;5.88;;
20653;SDS011;21083;50.898;4.902;2024-03-06T05:44:29;12.38;;;5.65;;
20653;SDS011;21083;50.898;4.902;2024-03-06T05:46:57;10.98;;;4.95;;
20653;SDS011;21083;50.898;4.902;2024-03-06T05:49:26;12.05;;;6.35;;
20653;SDS011;21083;50.898;4.902;2024-03-06T05:51:54;11.30;;;4.95;;
20653;SDS011;21083;50.898;4.902;2024-03-06T05:54:22;15.32;;;5.30;;
20653;SDS011;21083;50.898;4.902;2024-03-06T05:56:50;11.85;;;5.60;;
20653;SDS011;21083;50.898;4.902;2024-03-06T05:59:19;11.77;;;5.60;;
20653;SDS011;21083;50.898;4.902;2024-03-06T06:01:46;13.95;;;5.95;;
20653;SDS011;21083;50.898;4.902;2024-03-06T06:04:14;12.27;;;5.63;;
20653;SDS011;21083;50.898;4.902;2024-03-06T06:06:42;12.07;;;6.03;;
20653;SDS011;21083;50.898;4.902;2024-03-06T06:09:10;11.82;;;5.38;;
20653;SDS011;21083;50.898;4.902;2024-03-06T06:11:41;10.65;;;4.85;;
20653;SDS011;21083;50.898;4.902;2024-03-06T06:14:09;19.27;;;5.78;;
20653;SDS011;21083;50.898;4.902;2024-03-06T06:16:35;13.13;;;5.30;;
20653;SDS011;21083;50.898;4.902;2024-03-06T06:19:03;13.63;;;5.38;;
20653;SDS011;21083;50.898;4.902;2024-03-06T06:21:31;14.95;;;4.97;;
20653;SDS011;21083;50.898;4.902;2024-03-06T06:24:02;11.23;;;5.18;;
20653;SDS011;21083;50.898;4.902;2024-03-06T06:26:30;13.95;;;5.75;;
20653;SDS011;21083;50.898;4.902;2024-03-06T06:28:57;12.30;;;5.97;;
20653;SDS011;21083;50.898;4.902;2024-03-06T06:31:25;11.20;;;5.07;;
20653;SDS011;21083;50.898;4.902;2024-03-06T06:33:52;13.23;;;5.88;;
20653;SDS011;21083;50.898;4.902;2024-03-06T06:36:19;13.52;;;5.70;;
20653;SDS011;21083;50.898;4.902;2024-03-06T06:38:47;14.20;;;5.68;;
20653;SDS011;21083;50.898;4.902;2024-03-06T06:41:17;12.18;;;4.95;;
20653;SDS011;21083;50.898;4.902;2024-03-06T06:43:44;12.52;;;4.30;;
20653;SDS011;21083;50.898;4.902;2024-03-06T06:46:12;15.95;;;5.35;;
20653;SDS011;21083;50.898;4.902;2024-03-06T06:48:39;15.55;;;5.75;;
20653;SDS011;21083;50.898;4.902;2024-03-06T06:51:06;14.43;;;5.07;;
20653;SDS011;21083;50.898;4.902;2024-03-06T06:53:33;18.35;;;5.85;;
20653;SDS011;21083;50.898;4.902;2024-03-06T06:56:01;14.95;;;5.03;;
20653;SDS011;21083;50.898;4.902;2024-03-06T06:58:30;12.82;;;5.00;;
20653;SDS011;21083;50.898;4.902;2024-03-06T07:00:57;12.02;;;4.65;;
20653;SDS011;21083;50.898;4.902;2024-03-06T07:03:25;12.75;;;5.03;;
20653;SDS011;21083;50.898;4.902;2024-03-06T07:05:55;13.57;;;4.93;;
20653;SDS011;21083;50.898;4.902;2024-03-06T07:08:22;12.32;;;5.22;;
20653;SDS011;21083;50.898;4.902;2024-03-06T07:10:50;12.55;;;4.78;;
20653;SDS011;21083;50.898;4.902;2024-03-06T07:13:18;10.40;;;4.60;;
20653;SDS011;21083;50.898;4.902;2024-03-06T07:15:47;12.52;;;4.90;;
20653;SDS011;21083;50.898;4.902;2024-03-06T07:18:14;12.38;;;4.93;;
20653;SDS011;21083;50.898;4.902;2024-03-06T07:20:41;10.52;;;4.68;;
20653;SDS011;21083;50.898;4.902;2024-03-06T07:23:09;10.13;;;4.15;;
20653;SDS011;21083;50.898;4.902;2024-03-06T07:25:36;18.67;;;5.53;;
20653;SDS011;21083;50.898;4.902;2024-03-06T07:28:03;15.45;;;5.15;;
20653;SDS011;21083;50.898;4.902;2024-03-06T07:30:31;14.18;;;4.53;;
20653;SDS011;21083;50.898;4.902;2024-03-06T07:33:00;11.90;;;4.93;;
20653;SDS011;21083;50.898;4.902;2024-03-06T07:35:27;11.45;;;5.32;;
20653;SDS011;21083;50.898;4.902;2024-03-06T07:37:54;14.40;;;5.03;;
20653;SDS011;21083;50.898;4.902;2024-03-06T07:40:22;10.38;;;4.50;;
20653;SDS011;21083;50.898;4.902;2024-03-06T07:42:49;13.10;;;4.85;;
20653;SDS011;21083;50.898;4.902;2024-03-06T07:45:16;10.20;;;4.13;;
20653;SDS011;21083;50.898;4.902;2024-03-06T07:47:45;13.48;;;4.43;;
20653;SDS011;21083;50.898;4.902;2024-03-06T07:50:14;15.35;;;5.45;;
20653;SDS011;21083;50.898;4.902;2024-03-06T07:52:44;13.93;;;4.47;;
20653;SDS011;21083;50.898;4.902;2024-03-06T07:55:12;13.38;;;4.57;;
20653;SDS011;21083;50.898;4.902;2024-03-06T07:57:39;10.68;;;4.40;;
20653;SDS011;21083;50.898;4.902;2024-03-06T08:00:06;10.95;;;4.47;;
20653;SDS011;21083;50.898;4.902;2024-03-06T08:02:39;10.82;;;4.10;;
20653;SDS011;21083;50.898;4.902;2024-03-06T08:05:08;11.70;;;4.53;;
20653;SDS011;21083;50.898;4.902;2024-03-06T08:07:39;13.70;;;5.22;;
20653;SDS011;21083;50.898;4.902;2024-03-06T08:10:07;19.20;;;6.63;;
20653;SDS011;21083;50.898;4.902;2024-03-06T08:12:38;10.88;;;4.68;;
20653;SDS011;21083;50.898;4.902;2024-03-06T08:15:07;11.20;;;4.88;;
20653;SDS011;21083;50.898;4.902;2024-03-06T08:17:38;12.95;;;5.22;;
20653;SDS011;21083;50.898;4.902;2024-03-06T08:20:07;12.07;;;5.10;;
20653;SDS011;21083;50.898;4.902;2024-03-06T08:22:38;9.30;;;4.35;;
20653;SDS011;21083;50.898;4.902;2024-03-06T08:25:07;13.65;;;5.90;;
20653;SDS011;21083;50.898;4.902;2024-03-06T08:27:36;14.98;;;5.03;;
20653;SDS011;21083;50.898;4.902;2024-03-06T08:30:04;10.07;;;4.93;;
20653;SDS011;21083;50.898;4.902;2024-03-06T08:32:33;12.50;;;4.95;;
20653;SDS011;21083;50.898;4.902;2024-03-06T08:35:03;10.32;;;4.90;;
20653;SDS011;21083;50.898;4.902;2024-03-06T08:37:32;14.30;;;5.40;;
20653;SDS011;21083;50.898;4.902;2024-03-06T08:40:00;12.30;;;5.57;;
20653;SDS011;21083;50.898;4.902;2024-03-06T08:42:29;13.10;;;4.85;;
20653;SDS011;21083;50.898;4.902;2024-03-06T08:44:57;14.20;;;5.35;;
20653;SDS011;21083;50.898;4.902;2024-03-06T08:47:25;12.70;;;5.25;;
20653;SDS011;21083;50.898;4.902;2024-03-06T08:49:52;14.63;;;5.15;;
20653;SDS011;21083;50.898;4.902;2024-03-06T08:52:19;13.15;;;5.40;;
20653;SDS011;21083;50.898;4.902;2024-03-06T08:54:47;14.90;;;6.97;;
20653;SDS011;21083;50.898;4.902;2024-03-06T08:57:15;16.42;;;5.07;;
20653;SDS011;21083;50.898;4.902;2024-03-06T08:59:45;16.33;;;5.70;;
20653;SDS011;21083;50.898;4.902;2024-03-06T09:02:13;13.43;;;5.65;;
20653;SDS011;21083;50.898;4.902;2024-03-06T09:04:41;12.77;;;5.05;;
20653;SDS011;21083;50.898;4.902;2024-03-06T09:07:08;11.93;;;4.70;;
20653;SDS011;21083;50.898;4.902;2024-03-06T09:09:36;10.93;;;4.93;;
20653;SDS011;21083;50.898;4.902;2024-03-06T09:12:04;12.23;;;5.50;;
20653;SDS011;21083;50.898;4.902;2024-03-06T09:14:33;17.25;;;5.38;;
20653;SDS011;21083;50.898;4.902;2024-03-06T09:17:00;15.05;;;5.57;;
20653;SDS011;21083;50.898;4.902;2024-03-06T09:19:28;10.52;;;5.07;;
20653;SDS011;21083;50.898;4.902;2024-03-06T09:21:56;18.02;;;5.00;;
20653;SDS011;21083;50.898;4.902;2024-03-06T09:24:23;13.25;;;5.50;;
20653;SDS011;21083;50.898;4.902;2024-03-06T09:26:51;10.30;;;4.95;;
20653;SDS011;21083;50.898;4.902;2024-03-06T09:29:19;15.85;;;5.53;;
20653;SDS011;21083;50.898;4.902;2024-03-06T09:31:48;12.25;;;4.93;;
20653;SDS011;21083;50.898;4.902;2024-03-06T09:34:15;15.18;;;4.97;;
20653;SDS011;21083;50.898;4.902;2024-03-06T09:36:45;10.75;;;4.68;;
20653;SDS011;21083;50.898;4.902;2024-03-06T09:39:13;11.48;;;5.55;;
20653;SDS011;21083;50.898;4.902;2024-03-06T09:41:43;17.00;;;5.57;;
20653;SDS011;21083;50.898;4.902;2024-03-06T09:44:11;13.82;;;4.93;;
20653;SDS011;21083;50.898;4.902;2024-03-06T09:46:39;12.75;;;5.75;;
20653;SDS011;21083;50.898;4.902;2024-03-06T09:49:12;12.98;;;4.85;;
20653;SDS011;21083;50.898;4.902;2024-03-06T09:51:41;10.75;;;3.97;;
20653;SDS011;21083;50.898;4.902;2024-03-06T09:54:11;15.13;;;4.82;;
20653;SDS011;21083;50.898;4.902;2024-03-06T09:56:40;11.40;;;4.43;;
20653;SDS011;21083;50.898;4.902;2024-03-06T09:59:10;16.45;;;4.70;;
20653;SDS011;21083;50.898;4.902;2024-03-06T10:01:39;14.65;;;5.22;;
20653;SDS011;21083;50.898;4.902;2024-03-06T10:04:19;12.25;;;4.78;;
20653;SDS011;21083;50.898;4.902;2024-03-06T10:06:47;12.95;;;4.03;;
20653;SDS011;21083;50.898;4.902;2024-03-06T10:09:16;13.30;;;3.88;;
20653;SDS011;21083;50.898;4.902;2024-03-06T10:11:44;10.88;;;3.97;;
20653;SDS011;21083;50.898;4.902;2024-03-06T10:14:12;12.88;;;4.53;;
20653;SDS011;21083;50.898;4.902;2024-03-06T10:16:51;10.27;;;4.10;;
20653;SDS011;21083;50.898;4.902;2024-03-06T10:19:22;10.25;;;4.10;;
20653;SDS011;21083;50.898;4.902;2024-03-06T10:21:52;14.05;;;4.35;;
20653;SDS011;21083;50.898;4.902;2024-03-06T10:24:20;14.13;;;4.93;;
20653;SDS011;21083;50.898;4.902;2024-03-06T10:26:49;13.25;;;4.00;;
20653;SDS011;21083;50.898;4.902;2024-03-06T10:29:19;10.45;;;3.63;;
20653;SDS011;21083;50.898;4.902;2024-03-06T10:31:48;8.73;;;3.13;;
20653;SDS011;21083;50.898;4.902;2024-03-06T10:34:17;13.00;;;3.90;;
20653;SDS011;21083;50.898;4.902;2024-03-06T10:36:46;15.55;;;4.32;;
20653;SDS011;21083;50.898;4.902;2024-03-06T10:39:20;10.15;;;3.03;;
20653;SDS011;21083;50.898;4.902;2024-03-06T10:41:51;11.65;;;3.72;;
20653;SDS011;21083;50.898;4.902;2024-03-06T10:44:20;9.50;;;3.60;;
20653;SDS011;21083;50.898;4.902;2024-03-06T10:46:51;8.20;;;3.20;;
20653;SDS011;21083;50.898;4.902;2024-03-06T10:49:23;9.95;;;3.70;;
20653;SDS011;21083;50.898;4.902;2024-03-06T10:51:54;10.52;;;3.53;;
20653;SDS011;21083;50.898;4.902;2024-03-06T10:54:26;15.38;;;3.75;;
20653;SDS011;21083;50.898;4.902;2024-03-06T10:56:55;11.50;;;3.28;;
20653;SDS011;21083;50.898;4.902;2024-03-06T10:59:24;8.68;;;3.22;;
20653;SDS011;21083;50.898;4.902;2024-03-06T11:01:54;13.55;;;3.53;;
20653;SDS011;21083;50.898;4.902;2024-03-06T11:04:23;9.57;;;3.70;;
20653;SDS011;21083;50.898;4.902;2024-03-06T11:06:55;9.88;;;3.80;;
20653;SDS011;21083;50.898;4.902;2024-03-06T11:09:24;12.80;;;3.78;;
20653;SDS011;21083;50.898;4.902;2024-03-06T11:11:52;9.80;;;3.33;;
20653;SDS011;21083;50.898;4.902;2024-03-06T11:14:21;10.82;;;3.53;;
20653;SDS011;21083;50.898;4.902;2024-03-06T11:16:56;10.02;;;3.33;;
20653;SDS011;21083;50.898;4.902;2024-03-06T11:19:26;9.63;;;2.50;;
20653;SDS011;21083;50.898;4.902;2024-03-06T11:21:56;9.35;;;2.60;;
20653;SDS011;21083;50.898;4.902;2024-03-06T11:24:24;11.55;;;4.03;;
20653;SDS011;21083;50.898;4.902;2024-03-06T11:26:59;9.13;;;3.00;;
20653;SDS011;21083;50.898;4.902;2024-03-06T11:29:28;6.47;;;2.50;;
20653;SDS011;21083;50.898;4.902;2024-03-06T11:31:57;7.18;;;2.38;;
20653;SDS011;21083;50.898;4.902;2024-03-06T11:34:26;9.57;;;2.80;;
20653;SDS011;21083;50.898;4.902;2024-03-06T11:36:57;8.90;;;3.25;;
20653;SDS011;21083;50.898;4.902;2024-03-06T11:39:28;7.93;;;2.35;;
20653;SDS011;21083;50.898;4.902;2024-03-06T11:41:56;10.27;;;2.15;;
20653;SDS011;21083;50.898;4.902;2024-03-06T11:44:23;9.20;;;2.50;;
20653;SDS011;21083;50.898;4.902;2024-03-06T11:46:56;11.55;;;2.20;;
20653;SDS011;21083;50.898;4.902;2024-03-06T11:49:25;9.35;;;2.67;;
20653;SDS011;21083;50.898;4.902;2024-03-06T11:51:54;7.50;;;2.15;;
20653;SDS011;21083;50.898;4.902;2024-03-06T11:54:24;9.68;;;2.60;;
20653;SDS011;21083;50.898;4.902;2024-03-06T11:56:54;8.93;;;2.10;;
20653;SDS011;21083;50.898;4.902;2024-03-06T11:59:22;7.07;;;2.10;;
20653;SDS011;21083;50.898;4.902;2024-03-06T12:01:50;6.53;;;1.95;;
20653;SDS011;21083;50.898;4.902;2024-03-06T12:04:18;9.85;;;2.30;;
20653;SDS011;21083;50.898;4.902;2024-03-06T12:06:47;6.55;;;1.90;;
20653;SDS011;21083;50.898;4.902;2024-03-06T12:09:16;12.43;;;2.95;;
20653;SDS011;21083;50.898;4.902;2024-03-06T12:11:43;10.13;;;2.40;;
20653;SDS011;21083;50.898;4.902;2024-03-06T12:14:14;6.38;;;1.85;;
20653;SDS011;21083;50.898;4.902;2024-03-06T12:16:43;11.20;;;2.92;;
20653;SDS011;21083;50.898;4.902;2024-03-06T12:19:11;8.10;;;2.35;;
20653;SDS011;21083;50.898;4.902;2024-03-06T12:21:38;8.10;;;2.60;;
20653;SDS011;21083;50.898;4.902;2024-03-06T12:24:06;8.88;;;2.40;;
20653;SDS011;21083;50.898;4.902;2024-03-06T12:26:36;8.20;;;2.78;;
20653;SDS011;21083;50.898;4.902;2024-03-06T12:29:04;11.57;;;2.42;;
20653;SDS011;21083;50.898;4.902;2024-03-06T12:31:33;7.72;;;2.38;;
20653;SDS011;21083;50.898;4.902;2024-03-06T12:34:02;9.68;;;3.10;;
20653;SDS011;21083;50.898;4.902;2024-03-06T12:36:29;9.82;;;2.30;;
20653;SDS011;21083;50.898;4.902;2024-03-06T12:38:58;7.03;;;2.60;;
20653;SDS011;21083;50.898;4.902;2024-03-06T12:41:26;7.45;;;2.45;;
20653;SDS011;21083;50.898;4.902;2024-03-06T12:43:56;8.23;;;2.55;;
20653;SDS011;21083;50.898;4.902;2024-03-06T12:46:23;8.23;;;2.70;;
20653;SDS011;21083;50.898;4.902;2024-03-06T12:48:51;9.00;;;2.58;;
20653;SDS011;21083;50.898;4.902;2024-03-06T12:51:19;8.35;;;2.38;;
20653;SDS011;21083;50.898;4.902;2024-03-06T12:53:47;11.50;;;2.72;;
20653;SDS011;21083;50.898;4.902;2024-03-06T12:56:15;10.10;;;2.78;;
20653;SDS011;21083;50.898;4.902;2024-03-06T12:58:42;12.55;;;6.85;;
20653;SDS011;21083;50.898;4.902;2024-03-06T13:01:11;7.05;;;2.55;;
20653;SDS011;21083;50.898;4.902;2024-03-06T13:03:39;9.50;;;2.78;;
20653;SDS011;21083;50.898;4.902;2024-03-06T13:06:06;7.40;;;2.50;;
20653;SDS011;21083;50.898;4.902;2024-03-06T13:08:33;10.73;;;2.55;;
20653;SDS011;21083;50.898;4.902;2024-03-06T13:11:01;7.53;;;2.65;;
20653;SDS011;21083;50.898;4.902;2024-03-06T13:13:28;7.03;;;2.30;;
20653;SDS011;21083;50.898;4.902;2024-03-06T13:15:58;7.82;;;1.83;;
20653;SDS011;21083;50.898;4.902;2024-03-06T13:18:27;9.65;;;2.22;;
20653;SDS011;21083;50.898;4.902;2024-03-06T13:20:54;9.05;;;2.47;;
20653;SDS011;21083;50.898;4.902;2024-03-06T13:23:23;18.40;;;11.00;;
20653;SDS011;21083;50.898;4.902;2024-03-06T13:25:50;6.25;;;1.80;;
20653;SDS011;21083;50.898;4.902;2024-03-06T13:28:18;4.00;;;1.45;;
20653;SDS011;21083;50.898;4.902;2024-03-06T13:30:46;7.03;;;1.88;;
20653;SDS011;21083;50.898;4.902;2024-03-06T13:33:13;8.48;;;1.90;;
20653;SDS011;21083;50.898;4.902;2024-03-06T13:35:42;8.50;;;1.92;;
20653;SDS011;21083;50.898;4.902;2024-03-06T13:38:09;7.28;;;1.90;;
20653;SDS011;21083;50.898;4.902;2024-03-06T13:40:37;8.27;;;2.50;;
20653;SDS011;21083;50.898;4.902;2024-03-06T13:43:04;8.50;;;2.08;;
20653;SDS011;21083;50.898;4.902;2024-03-06T13:45:33;8.45;;;2.13;;
20653;SDS011;21083;50.898;4.902;2024-03-06T13:48:02;7.35;;;1.85;;
20653;SDS011;21083;50.898;4.902;2024-03-06T13:50:42;8.70;;;2.08;;
20653;SDS011;21083;50.898;4.902;2024-03-06T13:53:10;7.30;;;1.88;;
20653;SDS011;21083;50.898;4.902;2024-03-06T13:55:38;6.25;;;1.80;;
20653;SDS011;21083;50.898;4.902;2024-03-06T13:58:07;7.22;;;2.00;;
20653;SDS011;21083;50.898;4.902;2024-03-06T14:00:34;4.82;;;1.80;;
20653;SDS011;21083;50.898;4.902;2024-03-06T14:03:01;4.57;;;1.80;;
20653;SDS011;21083;50.898;4.902;2024-03-06T14:05:29;12.15;;;2.58;;
20653;SDS011;21083;50.898;4.902;2024-03-06T14:07:58;6.32;;;1.83;;
20653;SDS011;21083;50.898;4.902;2024-03-06T14:10:25;5.03;;;1.80;;
20653;SDS011;21083;50.898;4.902;2024-03-06T14:12:52;8.18;;;2.28;;
20653;SDS011;21083;50.898;4.902;2024-03-06T14:15:20;4.90;;;1.83;;
20653;SDS011;21083;50.898;4.902;2024-03-06T14:17:49;9.40;;;2.00;;
20653;SDS011;21083;50.898;4.902;2024-03-06T14:20:16;4.28;;;1.75;;
20653;SDS011;21083;50.898;4.902;2024-03-06T14:22:43;6.30;;;1.33;;
20653;SDS011;21083;50.898;4.902;2024-03-06T14:25:12;3.38;;;1.40;;
20653;SDS011;21083;50.898;4.902;2024-03-06T14:27:39;2.47;;;0.85;;
20653;SDS011;21083;50.898;4.902;2024-03-06T14:30:07;2.47;;;0.82;;
20653;SDS011;21083;50.898;4.902;2024-03-06T14:32:37;3.08;;;1.00;;
20653;SDS011;21083;50.898;4.902;2024-03-06T14:35:04;3.70;;;0.90;;
20653;SDS011;21083;50.898;4.902;2024-03-06T14:37:32;5.15;;;0.90;;
20653;SDS011;21083;50.898;4.902;2024-03-06T14:40:00;5.03;;;1.20;;
20653;SDS011;21083;50.898;4.902;2024-03-06T14:42:36;3.92;;;0.90;;
20653;SDS011;21083;50.898;4.902;2024-03-06T14:45:03;3.40;;;0.88;;